Orbital elements of SL-14 R/B
| Launched | 29 January 2009 |
| Flight ended | – |
| Launch site | Plesetsk Missile and Space Complex, Russia |
| Owner | Commonwealth of Independent States (former USSR) |
| NORAD ID | 33505 |
| Date fetched |
Epoch osculation |
Inc. [°] |
Ecc. | RA asc node [hr] |
Arg Peri. [°] |
Mean anom [°] |
Mean motion [rev/day] |
Abs. mag |
| Date fetched |
Epoch osculation |
Inc. [°] |
Ecc. | RA asc node [hr] |
Arg Peri. [°] |
Mean anom [°] |
Mean motion [rev/day] |
Abs. mag |
| 2026 May 07 17:58 | 2026 May 05 11:59:25 | 82.3849 | 0.00213 | 16.5694 | 174.4271 | 185.7204 | 15.18482 | 5.243 |
| 2026 May 06 17:57 | 2026 May 05 11:59:25 | 82.3849 | 0.00213 | 16.5694 | 174.4271 | 185.7204 | 15.18482 | 5.243 |
| 2026 May 05 17:57 | 2026 May 05 11:59:25 | 82.3849 | 0.00213 | 16.5694 | 174.4271 | 185.7204 | 15.18482 | 5.243 |
| 2026 May 04 17:57 | 2026 Apr 30 14:57:21 | 82.3840 | 0.00209 | 16.8967 | 191.5057 | 185.7204 | 15.18482 | 5.243 |
| 2026 May 03 17:57 | 2026 Apr 30 14:57:21 | 82.3840 | 0.00209 | 16.8967 | 191.5057 | 185.7204 | 15.18482 | 5.243 |
| 2026 May 02 17:57 | 2026 Apr 30 14:57:21 | 82.3840 | 0.00209 | 16.8967 | 191.5057 | 185.7204 | 15.18482 | 5.243 |
| 2026 May 01 17:56 | 2026 Apr 30 14:57:21 | 82.3840 | 0.00209 | 16.8967 | 191.5057 | 185.7204 | 15.18482 | 5.243 |
| 2026 Apr 30 17:56 | 2026 Apr 30 14:57:21 | 82.3840 | 0.00209 | 16.8967 | 191.5057 | 185.7204 | 15.18482 | 5.243 |
| 2026 Apr 29 17:57 | 2026 Apr 24 11:52:11 | 82.3829 | 0.00204 | 17.3082 | 213.3661 | 185.7204 | 15.18482 | 5.243 |
| 2026 Apr 28 17:56 | 2026 Apr 24 11:52:11 | 82.3829 | 0.00204 | 17.3082 | 213.3661 | 185.7204 | 15.18482 | 5.243 |
| 2026 Apr 27 17:58 | 2026 Apr 24 11:52:11 | 82.3829 | 0.00204 | 17.3082 | 213.3661 | 185.7204 | 15.18482 | 5.243 |
| 2026 Apr 26 17:58 | 2026 Apr 24 11:52:11 | 82.3829 | 0.00204 | 17.3082 | 213.3661 | 185.7204 | 15.18482 | 5.243 |
| 2026 Apr 25 17:58 | 2026 Apr 24 11:52:11 | 82.3829 | 0.00204 | 17.3082 | 213.3661 | 185.7204 | 15.18482 | 5.243 |
| 2026 Apr 24 17:59 | 2026 Apr 24 11:52:11 | 82.3829 | 0.00204 | 17.3082 | 213.3661 | 185.7204 | 15.18482 | 5.243 |
| 2026 Apr 23 17:57 | 2026 Apr 19 11:40:06 | 82.3819 | 0.00200 | 17.6445 | 231.5119 | 185.7204 | 15.18482 | 5.243 |
| 2026 Apr 22 17:57 | 2026 Apr 19 11:40:06 | 82.3819 | 0.00200 | 17.6445 | 231.5119 | 185.7204 | 15.18482 | 5.243 |
| 2026 Apr 21 17:57 | 2026 Apr 19 11:40:06 | 82.3819 | 0.00200 | 17.6445 | 231.5119 | 185.7204 | 15.18482 | 5.243 |
| 2026 Apr 20 17:57 | 2026 Apr 19 11:40:06 | 82.3819 | 0.00200 | 17.6445 | 231.5119 | 185.7204 | 15.18482 | 5.243 |
| 2026 Apr 19 17:58 | 2026 Apr 19 11:40:06 | 82.3819 | 0.00200 | 17.6445 | 231.5119 | 185.7204 | 15.18482 | 5.243 |
| 2026 Apr 18 17:56 | 2026 Apr 12 23:05:20 | 82.3817 | 0.00197 | 18.0826 | 255.7322 | 185.7204 | 15.18482 | 5.243 |
| 2026 Apr 16 17:57 | 2026 Apr 12 23:05:20 | 82.3817 | 0.00197 | 18.0826 | 255.7322 | 185.7204 | 15.18482 | 5.243 |
| 2026 Apr 14 17:57 | 2026 Apr 12 23:05:20 | 82.3817 | 0.00197 | 18.0826 | 255.7322 | 185.7204 | 15.18482 | 5.243 |
| 2026 Apr 13 17:57 | 2026 Apr 12 23:05:20 | 82.3817 | 0.00197 | 18.0826 | 255.7322 | 185.7204 | 15.18482 | 5.243 |
| 2026 Apr 12 17:57 | 2026 Apr 08 14:42:07 | 82.3818 | 0.00197 | 18.3746 | 271.9743 | 185.7204 | 15.18482 | 5.243 |
| 2026 Apr 11 17:57 | 2026 Apr 08 14:42:07 | 82.3818 | 0.00197 | 18.3746 | 271.9743 | 185.7204 | 15.18482 | 5.243 |
| 2026 Apr 10 17:58 | 2026 Apr 08 14:42:07 | 82.3818 | 0.00197 | 18.3746 | 271.9743 | 185.7204 | 15.18482 | 5.243 |